createdAt,value
2022-12-15T00:02:19.713Z,15.48
2022-12-15T00:05:24.652Z,14.98
2022-12-15T00:08:30.288Z,15.32
2022-12-15T00:11:35.309Z,15.82
2022-12-15T00:14:39.990Z,15.25
2022-12-15T00:17:45.020Z,15.70
2022-12-15T00:20:50.169Z,14.27
2022-12-15T00:23:55.813Z,15.27
2022-12-15T00:27:00.853Z,15.48
2022-12-15T00:30:06.254Z,16.27
2022-12-15T00:33:11.101Z,14.82
2022-12-15T00:36:18.231Z,15.52
2022-12-15T00:39:04.716Z,17.38
2022-12-15T00:41:50.848Z,15.25
2022-12-15T00:44:37.877Z,15.95
2022-12-15T00:47:24.267Z,14.90
2022-12-15T00:50:29.438Z,15.90
2022-12-15T00:53:34.465Z,16.20
2022-12-15T00:56:39.454Z,15.73
2022-12-15T00:59:44.387Z,15.73
2022-12-15T01:02:49.925Z,15.63
2022-12-15T01:05:55.289Z,15.00
2022-12-15T01:09:00.548Z,14.77
2022-12-15T01:12:05.948Z,15.18
2022-12-15T01:15:11.323Z,15.52
2022-12-15T01:18:17.206Z,15.50
2022-12-15T01:21:05.632Z,14.80
2022-12-15T01:23:52.205Z,16.27
2022-12-15T01:26:39.561Z,17.15
2022-12-15T01:29:25.949Z,14.70
2022-12-15T01:32:13.066Z,16.13
2022-12-15T01:34:59.517Z,16.13
2022-12-15T01:37:46.133Z,15.18
2022-12-15T01:40:46.462Z,15.55
2022-12-15T01:43:36.345Z,15.95
2022-12-15T01:46:24.085Z,15.38
2022-12-15T01:49:13.196Z,16.42
2022-12-15T01:52:06.025Z,16.85
2022-12-15T01:54:58.740Z,17.00
2022-12-15T01:57:46.420Z,15.88
2022-12-15T02:00:32.762Z,16.73
2022-12-15T02:03:19.614Z,17.20
2022-12-15T02:06:07.038Z,14.80
2022-12-15T02:08:54.123Z,16.88
2022-12-15T02:11:59.553Z,16.55
2022-12-15T02:14:48.192Z,16.15
2022-12-15T02:17:44.009Z,17.23
2022-12-15T02:20:39.296Z,17.73
2022-12-15T02:23:45.708Z,16.08
2022-12-15T02:26:43.746Z,18.17
2022-12-15T02:29:29.895Z,16.20
2022-12-15T02:32:27.554Z,17.23
2022-12-15T02:35:18.384Z,16.73
2022-12-15T02:38:05.291Z,16.17
2022-12-15T02:40:58.046Z,19.13
2022-12-15T02:43:45.429Z,18.20
2022-12-15T02:46:55.905Z,18.00
2022-12-15T02:49:51.455Z,17.80
2022-12-15T02:52:42.671Z,17.05
2022-12-15T02:55:31.844Z,17.98
2022-12-15T02:58:36.722Z,19.38
2022-12-15T03:01:35.651Z,18.38
2022-12-15T03:04:22.873Z,19.13
2022-12-15T03:07:10.567Z,18.05
2022-12-15T03:09:57.180Z,18.15
2022-12-15T03:12:43.483Z,19.25
2022-12-15T03:15:35.087Z,18.55
2022-12-15T03:18:21.951Z,18.25
2022-12-15T03:21:10.306Z,18.42
2022-12-15T03:23:56.744Z,17.05
2022-12-15T03:26:43.967Z,17.23
2022-12-15T03:29:30.663Z,18.05
2022-12-15T03:32:17.672Z,17.52
2022-12-15T03:35:04.208Z,17.02
2022-12-15T03:37:50.758Z,17.75
2022-12-15T03:40:37.016Z,18.70
2022-12-15T03:43:24.036Z,18.73
2022-12-15T03:46:10.460Z,19.08
2022-12-15T03:48:57.718Z,17.92
2022-12-15T03:51:45.116Z,17.42
2022-12-15T03:54:31.792Z,17.50
2022-12-15T03:57:18.849Z,16.38
2022-12-15T04:00:06.501Z,17.42
2022-12-15T04:02:59.493Z,16.02
2022-12-15T04:05:46.467Z,17.40
2022-12-15T04:08:32.970Z,16.98
2022-12-15T04:11:20.085Z,16.52
2022-12-15T04:14:06.288Z,15.52
2022-12-15T04:16:53.159Z,16.05
2022-12-15T04:19:58.006Z,18.08
2022-12-15T04:22:46.087Z,16.35
2022-12-15T04:25:50.936Z,15.85
2022-12-15T04:28:55.764Z,16.80
2022-12-15T04:32:02.230Z,15.25
2022-12-15T04:35:07.238Z,16.20
2022-12-15T04:38:12.247Z,15.50
2022-12-15T04:41:17.071Z,16.02
2022-12-15T04:44:22.276Z,16.77
2022-12-15T04:47:27.426Z,16.20
2022-12-15T04:50:32.561Z,17.08
2022-12-15T04:53:37.937Z,16.23
2022-12-15T04:56:42.905Z,16.98
2022-12-15T04:59:47.778Z,16.65
2022-12-15T05:02:52.677Z,17.02
2022-12-15T05:05:57.565Z,15.93
2022-12-15T05:09:02.326Z,16.77
2022-12-15T05:12:09.177Z,16.52
2022-12-15T05:15:16.914Z,16.77
2022-12-15T05:18:22.035Z,16.38
2022-12-15T05:21:26.914Z,16.60
2022-12-15T05:24:31.805Z,16.20
2022-12-15T05:27:36.608Z,17.10
2022-12-15T05:30:41.757Z,16.25
2022-12-15T05:33:28.691Z,16.80
2022-12-15T05:36:14.920Z,15.82
2022-12-15T05:39:01.179Z,16.33
2022-12-15T05:41:47.515Z,15.77
2022-12-15T05:44:34.798Z,16.25
2022-12-15T05:47:21.615Z,16.30
2022-12-15T05:50:08.523Z,15.60
2022-12-15T05:52:55.808Z,15.77
2022-12-15T05:55:41.829Z,15.32
2022-12-15T05:58:28.153Z,16.08
2022-12-15T06:01:15.722Z,16.92
2022-12-15T06:04:02.024Z,16.33
2022-12-15T06:06:48.413Z,16.17
2022-12-15T06:09:35.217Z,16.88
2022-12-15T06:12:21.941Z,16.35
2022-12-15T06:15:08.210Z,15.63
2022-12-15T06:17:55.964Z,16.92
2022-12-15T06:20:42.473Z,15.27
2022-12-15T06:23:29.656Z,15.73
2022-12-15T06:26:16.675Z,15.82
2022-12-15T06:29:05.816Z,16.02
2022-12-15T06:31:55.540Z,17.33
2022-12-15T06:34:42.713Z,15.90
2022-12-15T06:37:31.189Z,16.40
2022-12-15T06:40:18.371Z,16.48
2022-12-15T06:43:05.446Z,17.55
2022-12-15T06:45:51.765Z,16.23
2022-12-15T06:48:38.159Z,16.60
2022-12-15T06:51:24.858Z,16.95
2022-12-15T06:54:11.944Z,17.73
2022-12-15T06:56:58.009Z,17.73
2022-12-15T06:59:44.315Z,15.73
2022-12-15T07:02:33.089Z,17.70
2022-12-15T07:05:19.611Z,17.63
2022-12-15T07:08:05.768Z,18.90
2022-12-15T07:10:53.913Z,17.77
2022-12-15T07:13:40.570Z,17.98
2022-12-15T07:16:27.468Z,17.92
2022-12-15T07:19:14.698Z,17.83
2022-12-15T07:22:12.383Z,17.50
2022-12-15T07:25:10.801Z,17.65
2022-12-15T07:27:57.500Z,17.42
2022-12-15T07:30:43.810Z,16.48
2022-12-15T07:33:31.187Z,16.38
2022-12-15T07:36:18.467Z,17.48
2022-12-15T07:39:07.106Z,17.15
2022-12-15T07:41:54.571Z,16.08
2022-12-15T07:44:41.940Z,16.83
2022-12-15T07:47:28.847Z,16.45
2022-12-15T07:50:15.683Z,16.88
2022-12-15T07:53:02.705Z,16.77
2022-12-15T07:56:07.341Z,17.70
2022-12-15T07:58:55.084Z,17.70
2022-12-15T08:01:42.368Z,15.93
2022-12-15T08:04:29.305Z,15.88
2022-12-15T08:07:16.348Z,16.10
2022-12-15T08:10:03.181Z,15.25
2022-12-15T08:12:50.396Z,16.02
2022-12-15T08:15:38.202Z,15.25
2022-12-15T08:18:25.181Z,15.75
2022-12-15T08:21:12.665Z,16.25
2022-12-15T08:24:03.262Z,16.20
2022-12-15T08:26:51.147Z,16.00
2022-12-15T08:29:53.309Z,15.02
2022-12-15T08:32:39.765Z,14.13
2022-12-15T08:35:55.236Z,15.23
2022-12-15T08:38:33.147Z,15.23
2022-12-15T08:41:23.183Z,15.30
2022-12-15T08:44:09.559Z,14.30
2022-12-15T08:46:57.134Z,14.68
2022-12-15T08:49:44.270Z,14.90
2022-12-15T08:52:31.370Z,14.45
2022-12-15T08:55:22.367Z,14.77
2022-12-15T08:58:09.389Z,15.43
2022-12-15T09:01:01.187Z,14.45
2022-12-15T09:03:47.834Z,15.27
2022-12-15T09:06:35.783Z,14.50
2022-12-15T09:09:23.389Z,13.52
2022-12-15T09:12:12.989Z,14.10
2022-12-15T09:14:59.910Z,13.93
2022-12-15T09:17:47.328Z,14.05
2022-12-15T09:20:36.510Z,14.50
2022-12-15T09:23:23.608Z,12.48
2022-12-15T09:26:18.666Z,13.80
2022-12-15T09:29:06.120Z,14.13
2022-12-15T09:31:52.748Z,12.90
2022-12-15T09:34:39.808Z,12.65
2022-12-15T09:37:27.072Z,12.50
2022-12-15T09:40:15.077Z,13.23
2022-12-15T09:43:32.738Z,13.63
2022-12-15T09:46:16.572Z,13.40
2022-12-15T09:49:08.086Z,13.15
2022-12-15T09:51:59.360Z,12.60
2022-12-15T09:54:47.084Z,13.80
2022-12-15T09:58:11.251Z,13.27
2022-12-15T10:00:59.526Z,13.18
2022-12-15T10:03:52.053Z,14.18
2022-12-15T10:06:44.576Z,11.85
2022-12-15T10:09:38.181Z,14.00
2022-12-15T10:12:28.349Z,14.00
2022-12-15T10:15:21.790Z,13.23
2022-12-15T10:18:14.637Z,13.70
2022-12-15T10:21:02.196Z,13.52
2022-12-15T10:23:50.434Z,14.07
2022-12-15T10:26:36.892Z,15.18
2022-12-15T10:29:30.243Z,14.10
2022-12-15T10:32:17.378Z,14.60
2022-12-15T10:35:08.711Z,14.32
2022-12-15T10:38:00.094Z,14.02
2022-12-15T10:40:50.233Z,13.48
2022-12-15T10:43:38.280Z,13.95
2022-12-15T10:46:29.207Z,13.90
2022-12-15T10:49:15.734Z,13.45
2022-12-15T10:52:02.882Z,14.05
2022-12-15T10:54:50.055Z,13.27
2022-12-15T10:57:36.469Z,13.70
2022-12-15T11:00:28.881Z,13.70
2022-12-15T11:03:24.285Z,13.32
2022-12-15T11:06:16.336Z,14.02
2022-12-15T11:09:21.866Z,13.45
2022-12-15T11:12:50.504Z,13.60
2022-12-15T11:15:42.961Z,13.55
2022-12-15T11:18:45.294Z,13.88
2022-12-15T11:21:34.158Z,10.20
2022-12-15T11:24:46.836Z,13.95
2022-12-15T11:27:37.093Z,13.77
2022-12-15T11:30:26.618Z,13.30
2022-12-15T11:33:13.646Z,13.85
2022-12-15T11:36:14.134Z,14.20
2022-12-15T11:39:03.887Z,13.77
2022-12-15T11:42:08.955Z,13.98
2022-12-15T11:45:03.734Z,13.02
2022-12-15T11:48:09.076Z,13.60
2022-12-15T11:51:12.306Z,14.18
2022-12-15T11:54:08.847Z,13.52
2022-12-15T11:57:10.691Z,13.55
2022-12-15T12:00:06.024Z,14.10
2022-12-15T12:02:59.352Z,12.98
2022-12-15T12:05:58.411Z,13.77
2022-12-15T12:08:58.789Z,14.07
2022-12-15T12:11:51.883Z,13.48
2022-12-15T12:14:42.007Z,14.23
2022-12-15T12:17:47.644Z,13.73
2022-12-15T12:20:50.434Z,12.52
2022-12-15T12:23:46.094Z,13.85
2022-12-15T12:26:41.621Z,13.73
2022-12-15T12:29:34.174Z,13.75
2022-12-15T12:32:40.568Z,14.35
2022-12-15T12:35:43.134Z,14.60
2022-12-15T12:38:50.773Z,14.98
2022-12-15T12:41:50.974Z,13.95
2022-12-15T12:44:40.586Z,14.32
2022-12-15T12:47:38.108Z,15.05
2022-12-15T12:50:26.838Z,14.30
2022-12-15T12:53:35.305Z,15.02
2022-12-15T12:56:37.809Z,15.48
2022-12-15T12:59:31.167Z,13.93
2022-12-15T13:02:27.674Z,13.95
2022-12-15T13:05:30.117Z,13.73
2022-12-15T13:08:17.322Z,13.27
2022-12-15T13:11:25.305Z,14.15
2022-12-15T13:14:21.038Z,13.52
2022-12-15T13:17:29.215Z,13.75
2022-12-15T13:20:21.710Z,13.80
2022-12-15T13:23:20.942Z,15.25
2022-12-15T13:26:08.532Z,13.73
2022-12-15T13:28:57.967Z,14.27
2022-12-15T13:31:49.157Z,14.10
2022-12-15T13:34:39.711Z,14.45
2022-12-15T13:37:51.084Z,15.73
2022-12-15T13:40:38.770Z,14.73
2022-12-15T13:43:29.444Z,15.20
2022-12-15T13:46:18.286Z,14.82
2022-12-15T13:49:08.211Z,14.65
2022-12-15T13:52:00.492Z,14.48
2022-12-15T13:54:52.271Z,14.80
2022-12-15T13:57:46.518Z,15.30
2022-12-15T14:00:33.943Z,14.55
2022-12-15T14:03:20.303Z,14.25
2022-12-15T14:06:13.615Z,15.50
2022-12-15T14:09:00.608Z,14.57
2022-12-15T14:11:55.011Z,15.43
2022-12-15T14:14:45.547Z,15.55
2022-12-15T14:17:52.161Z,15.30
2022-12-15T14:20:44.713Z,15.93
2022-12-15T14:23:52.465Z,16.05
2022-12-15T14:26:52.665Z,17.38
2022-12-15T14:29:40.798Z,16.20
2022-12-15T14:32:28.589Z,15.95
2022-12-15T14:35:20.456Z,17.52
2022-12-15T14:38:08.925Z,16.48
2022-12-15T14:42:10.695Z,16.45
2022-12-15T14:45:01.207Z,16.80
2022-12-15T14:48:13.684Z,18.35
2022-12-15T14:51:01.905Z,14.38
2022-12-15T14:53:53.471Z,17.52
2022-12-15T14:56:40.562Z,17.92
2022-12-15T14:59:32.362Z,16.40
2022-12-15T15:02:25.238Z,14.37
2022-12-15T15:05:28.251Z,16.85
2022-12-15T15:11:20.588Z,15.55
2022-12-15T15:14:18.886Z,17.02
2022-12-15T15:17:06.088Z,17.85
2022-12-15T15:19:58.059Z,18.05
2022-12-15T15:22:46.679Z,17.83
2022-12-15T15:25:43.231Z,18.17
2022-12-15T15:28:36.759Z,17.85
2022-12-15T15:31:26.145Z,17.15
2022-12-15T15:34:12.667Z,17.50
2022-12-15T15:37:06.429Z,17.48
2022-12-15T15:39:55.633Z,17.60
2022-12-15T15:42:43.360Z,16.65
2022-12-15T15:45:32.022Z,17.95
2022-12-15T15:48:27.558Z,17.17
2022-12-15T15:51:14.933Z,16.92
2022-12-15T15:54:03.709Z,18.50
2022-12-15T15:56:49.981Z,16.80
2022-12-15T15:59:37.810Z,18.00
2022-12-15T16:02:24.414Z,17.50
2022-12-15T16:05:11.170Z,17.83
2022-12-15T16:07:58.786Z,17.88
2022-12-15T16:10:47.463Z,17.05
2022-12-15T16:13:34.024Z,18.10
2022-12-15T16:16:22.034Z,18.92
2022-12-15T16:19:08.575Z,17.33
2022-12-15T16:21:55.348Z,19.70
2022-12-15T16:24:41.553Z,18.77
2022-12-15T16:27:28.367Z,18.48
2022-12-15T16:30:16.605Z,18.00
2022-12-15T16:33:03.289Z,18.05
2022-12-15T16:35:50.522Z,18.20
2022-12-15T16:38:38.254Z,18.70
2022-12-15T16:41:27.789Z,19.00
2022-12-15T16:44:14.386Z,17.52
2022-12-15T16:47:00.977Z,19.83
2022-12-15T16:49:47.393Z,19.30
2022-12-15T16:52:34.997Z,19.00
2022-12-15T16:55:28.650Z,18.92
2022-12-15T16:58:16.121Z,20.45
2022-12-15T17:01:05.009Z,20.38
2022-12-15T17:03:52.265Z,19.08
2022-12-15T17:06:59.063Z,19.20
2022-12-15T17:09:45.608Z,19.02
2022-12-15T17:12:31.805Z,19.52
2022-12-15T17:15:28.365Z,19.55
2022-12-15T17:18:15.333Z,20.27
2022-12-15T17:21:06.611Z,19.35
2022-12-15T17:23:55.429Z,20.75
2022-12-15T17:26:43.058Z,22.23
2022-12-15T17:29:31.041Z,20.48
2022-12-15T17:32:17.897Z,20.38
2022-12-15T17:35:11.455Z,20.33
2022-12-15T17:37:57.613Z,19.92
2022-12-15T17:40:44.056Z,21.05
2022-12-15T17:43:35.726Z,22.02
2022-12-15T17:46:23.899Z,21.83
2022-12-15T17:49:10.231Z,20.73
2022-12-15T17:51:57.289Z,21.92
2022-12-15T17:54:45.942Z,21.67
2022-12-15T17:57:40.713Z,22.02
2022-12-15T18:00:32.384Z,21.45
2022-12-15T18:03:18.765Z,21.88
2022-12-15T18:06:09.737Z,22.17
2022-12-15T18:08:58.431Z,22.27
2022-12-15T18:11:49.449Z,19.67
2022-12-15T18:14:38.578Z,21.55
2022-12-15T18:17:31.190Z,22.58
2022-12-15T18:20:26.851Z,21.48
2022-12-15T18:23:22.338Z,20.60
2022-12-15T18:26:09.825Z,21.77
2022-12-15T18:28:56.802Z,21.85
2022-12-15T18:31:45.578Z,22.15
2022-12-15T18:34:31.653Z,22.05
2022-12-15T18:37:20.878Z,22.27
2022-12-15T18:40:10.257Z,22.00
2022-12-15T18:42:58.181Z,23.60
2022-12-15T18:45:55.946Z,23.38
2022-12-15T18:48:43.238Z,22.20
2022-12-15T18:51:33.223Z,21.48
2022-12-15T18:54:24.393Z,23.60
2022-12-15T18:57:28.558Z,23.55
2022-12-15T19:00:15.248Z,22.38
2022-12-15T19:03:02.804Z,23.23
2022-12-15T19:05:49.782Z,22.85
2022-12-15T19:08:38.154Z,22.90
2022-12-15T19:11:31.250Z,22.98
2022-12-15T19:14:41.815Z,22.63
2022-12-15T19:17:48.598Z,22.38
2022-12-15T19:20:53.835Z,21.63
2022-12-15T19:23:40.359Z,23.13
2022-12-15T19:26:27.140Z,22.17
2022-12-15T19:29:21.537Z,23.48
2022-12-15T19:32:08.616Z,23.02
2022-12-15T19:34:55.565Z,23.52
2022-12-15T19:37:45.020Z,22.92
2022-12-15T19:40:33.640Z,22.73
2022-12-15T19:43:21.198Z,22.10
2022-12-15T19:46:07.521Z,22.95
2022-12-15T19:48:54.579Z,23.35
2022-12-15T19:51:42.716Z,23.92
2022-12-15T19:54:33.013Z,25.08
2022-12-15T19:57:21.989Z,24.80
2022-12-15T20:00:16.668Z,24.67
2022-12-15T20:03:03.587Z,25.70
2022-12-15T20:05:52.449Z,23.70
2022-12-15T20:08:40.015Z,23.80
2022-12-15T20:11:27.661Z,24.23
2022-12-15T20:14:14.933Z,23.92
2022-12-15T20:17:01.581Z,23.98
2022-12-15T20:19:47.713Z,26.15
2022-12-15T20:22:34.656Z,24.10
2022-12-15T20:25:26.554Z,25.15
2022-12-15T20:28:17.788Z,19.00
2022-12-15T20:31:05.311Z,24.13
2022-12-15T20:33:55.625Z,25.15
2022-12-15T20:36:43.249Z,24.30
2022-12-15T20:39:31.293Z,24.33
2022-12-15T20:42:24.336Z,24.92
2022-12-15T20:45:17.884Z,25.05
2022-12-15T20:48:05.146Z,24.42
2022-12-15T20:50:57.320Z,24.27
2022-12-15T20:53:45.277Z,24.05
2022-12-15T20:56:34.147Z,25.33
2022-12-15T20:59:21.136Z,24.75
2022-12-15T21:02:18.993Z,23.90
2022-12-15T21:05:05.812Z,24.30
2022-12-15T21:07:52.686Z,27.38
2022-12-15T21:10:39.634Z,24.52
2022-12-15T21:13:27.516Z,25.15
2022-12-15T21:16:25.354Z,27.23
2022-12-15T21:19:20.350Z,25.23
2022-12-15T21:22:13.218Z,25.25
2022-12-15T21:25:01.878Z,25.45
2022-12-15T21:27:48.295Z,25.13
2022-12-15T21:30:35.873Z,27.08
2022-12-15T21:33:22.333Z,24.40
2022-12-15T21:36:13.579Z,25.58
2022-12-15T21:39:00.239Z,26.13
2022-12-15T21:41:46.351Z,25.15
2022-12-15T21:44:32.696Z,25.75
2022-12-15T21:47:52.272Z,26.27
2022-12-15T21:50:43.438Z,25.08
2022-12-15T21:53:29.739Z,27.02
2022-12-15T21:56:20.087Z,27.02
2022-12-15T21:59:16.668Z,26.58
2022-12-15T22:02:03.438Z,26.30
2022-12-15T22:04:51.907Z,25.73
2022-12-15T22:07:38.215Z,25.75
2022-12-15T22:10:24.975Z,27.20
2022-12-15T22:13:14.307Z,25.63
2022-12-15T22:16:00.934Z,25.92
2022-12-15T22:18:52.110Z,25.55
2022-12-15T22:21:38.373Z,27.13
2022-12-15T22:24:24.762Z,25.98
2022-12-15T22:27:21.217Z,25.92
2022-12-15T22:30:14.616Z,26.08
2022-12-15T22:33:00.857Z,26.25
2022-12-15T22:35:47.641Z,25.25
2022-12-15T22:38:34.496Z,26.23
2022-12-15T22:41:22.145Z,27.02
2022-12-15T22:44:34.646Z,26.80
2022-12-15T22:47:21.750Z,26.13
2022-12-15T22:50:08.304Z,24.80
2022-12-15T22:52:55.111Z,24.10
2022-12-15T22:55:41.963Z,24.30
2022-12-15T22:58:47.324Z,24.90
2022-12-15T23:01:33.687Z,25.55
2022-12-15T23:04:19.842Z,25.23
2022-12-15T23:07:07.742Z,26.75
2022-12-15T23:10:14.184Z,25.17
2022-12-15T23:13:00.703Z,26.08
2022-12-15T23:16:05.608Z,25.33
2022-12-15T23:18:55.812Z,25.98
2022-12-15T23:21:42.186Z,27.95
2022-12-15T23:24:29.560Z,26.30
2022-12-15T23:27:16.243Z,27.80
2022-12-15T23:30:02.822Z,26.98
2022-12-15T23:32:49.201Z,29.35
2022-12-15T23:35:36.005Z,29.63
2022-12-15T23:38:22.644Z,26.35
2022-12-15T23:41:09.328Z,26.80
2022-12-15T23:43:56.130Z,29.63
2022-12-15T23:46:42.696Z,27.67
2022-12-15T23:49:29.071Z,28.42
2022-12-15T23:52:15.365Z,29.15
2022-12-15T23:55:02.310Z,28.20
2022-12-15T23:57:48.796Z,28.60
